createdAt,value
2022-08-19T00:04:35.223Z,81.27
2022-08-19T00:09:53.541Z,81.48
2022-08-19T00:14:46.466Z,81.88
2022-08-19T00:19:46.385Z,81.14
2022-08-19T00:24:49.589Z,80.83
2022-08-19T00:29:46.250Z,81.44
2022-08-19T00:34:47.203Z,80.63
2022-08-19T00:39:46.154Z,81.14
2022-08-19T00:44:46.107Z,81.88
2022-08-19T00:49:46.002Z,82.58
2022-08-19T00:54:47.838Z,82.28
2022-08-19T00:59:56.278Z,82.22
2022-08-19T01:04:46.842Z,82.32
2022-08-19T01:09:45.723Z,82.22
2022-08-19T01:14:45.651Z,82.12
2022-08-19T01:19:45.601Z,82.62
2022-08-19T01:24:49.757Z,82.52
2022-08-19T01:29:45.467Z,82.92
2022-08-19T01:34:45.420Z,82.97
2022-08-19T01:39:45.360Z,83.87
2022-08-19T01:44:45.254Z,84.47
2022-08-19T01:49:45.210Z,84.07
2022-08-19T01:54:45.168Z,84.27
2022-08-19T01:59:45.097Z,84.31
2022-08-19T02:04:45.014Z,84.31
2022-08-19T02:09:44.945Z,84.81
2022-08-19T02:14:45.396Z,85.16
2022-08-19T02:19:44.813Z,85.76
2022-08-19T02:24:44.770Z,85.25
2022-08-19T02:29:44.675Z,84.65
2022-08-19T02:34:44.617Z,84.91
2022-08-19T02:39:44.653Z,84.81
2022-08-19T02:44:44.498Z,85.56
2022-08-19T02:49:44.506Z,85.76
2022-08-19T02:54:44.391Z,86.06
2022-08-19T02:59:44.314Z,86.91
2022-08-19T03:04:44.213Z,86.51
2022-08-19T03:09:44.138Z,86.51
2022-08-19T03:14:44.071Z,86.71
2022-08-19T03:19:44.004Z,87.05
2022-08-19T03:24:43.941Z,87.35
2022-08-19T03:29:44.149Z,87.45
2022-08-19T03:34:43.821Z,87.15
2022-08-19T03:39:43.750Z,87.35
2022-08-19T03:44:43.678Z,87.25
2022-08-19T03:49:43.610Z,86.75
2022-08-19T03:54:43.535Z,87.45
2022-08-19T03:59:43.490Z,87.90
2022-08-19T04:04:43.416Z,87.90
2022-08-19T04:09:43.333Z,88.30
2022-08-19T04:14:43.276Z,88.54
2022-08-19T04:19:57.326Z,89.05
2022-08-19T04:24:50.229Z,89.05
2022-08-19T04:29:50.180Z,88.85
2022-08-19T04:35:01.570Z,88.50
2022-08-19T04:39:51.067Z,88.50
2022-08-19T04:44:49.974Z,87.90
2022-08-19T04:49:49.907Z,87.90
2022-08-19T04:54:49.914Z,88.30
2022-08-19T04:59:49.780Z,88.10
2022-08-19T05:04:49.719Z,87.96
2022-08-19T05:09:57.848Z,87.31
2022-08-19T05:14:50.594Z,87.51
2022-08-19T05:19:49.570Z,86.66
2022-08-19T05:25:11.320Z,86.43
2022-08-19T05:29:50.386Z,85.38
2022-08-19T05:34:49.293Z,85.78
2022-08-19T05:39:51.593Z,85.98
2022-08-19T05:44:49.242Z,86.54
2022-08-19T05:49:49.103Z,85.14
2022-08-19T05:54:51.282Z,84.59
2022-08-19T05:59:48.970Z,83.39
2022-08-19T06:04:48.936Z,83.29
2022-08-19T06:09:54.432Z,83.49
2022-08-19T06:14:55.971Z,83.59
2022-08-19T06:19:49.694Z,82.60
2022-08-19T06:24:48.673Z,81.67
2022-08-19T06:29:48.586Z,81.09
2022-08-19T06:34:48.518Z,77.47
2022-08-19T06:39:48.510Z,75.05
2022-08-19T06:44:49.114Z,73.25
2022-08-19T06:49:48.327Z,70.75
2022-08-19T06:54:56.606Z,68.66
2022-08-19T06:59:49.217Z,67.30
2022-08-19T07:04:48.132Z,66.11
2022-08-19T07:09:51.597Z,64.76
2022-08-19T07:14:49.031Z,65.66
2022-08-19T07:19:47.914Z,66.78
2022-08-19T07:24:51.354Z,67.87
2022-08-19T07:29:47.869Z,65.72
2022-08-19T07:34:48.722Z,64.04
2022-08-19T07:39:47.668Z,62.85
2022-08-19T07:44:50.146Z,63.21
2022-08-19T07:49:47.552Z,60.42
2022-08-19T07:54:47.454Z,59.84
2022-08-19T07:59:47.458Z,59.11
2022-08-19T08:04:47.327Z,58.01
2022-08-19T08:09:50.134Z,55.04
2022-08-19T08:14:47.271Z,52.92
2022-08-19T08:19:47.143Z,52.18
2022-08-19T08:24:47.076Z,54.38
2022-08-19T08:29:47.078Z,54.25
2022-08-19T08:34:47.388Z,52.50
2022-08-19T08:39:46.961Z,51.32
2022-08-19T08:44:46.925Z,50.76
2022-08-19T08:49:46.816Z,50.04
2022-08-19T08:54:49.013Z,51.37
2022-08-19T08:59:47.710Z,49.21
2022-08-19T09:04:46.564Z,49.19
2022-08-19T09:09:46.521Z,46.04
2022-08-19T09:14:50.768Z,43.48
2022-08-19T09:19:47.395Z,41.82
2022-08-19T09:24:46.293Z,39.00
2022-08-19T09:29:46.261Z,40.45
2022-08-19T09:34:50.806Z,39.20
2022-08-19T09:39:47.140Z,41.38
2022-08-19T09:44:46.043Z,45.98
2022-08-19T09:49:45.993Z,50.49
2022-08-19T09:54:45.924Z,49.04
2022-08-19T09:59:46.935Z,44.51
2022-08-19T10:04:45.778Z,45.70
2022-08-19T10:09:45.725Z,44.81
2022-08-19T10:14:45.655Z,40.72
2022-08-19T10:19:55.682Z,41.56
2022-08-19T10:24:46.548Z,42.90
2022-08-19T10:29:46.418Z,44.68
2022-08-19T10:34:48.931Z,46.08
2022-08-19T10:39:45.467Z,44.62
2022-08-19T10:44:45.297Z,45.95
2022-08-19T10:49:45.330Z,44.31
2022-08-19T10:54:45.190Z,39.72
2022-08-19T10:59:45.058Z,38.82
2022-08-19T11:04:45.060Z,40.09
2022-08-19T11:09:44.988Z,42.99
2022-08-19T11:14:44.869Z,47.22
2022-08-19T11:19:44.851Z,40.03
2022-08-19T11:24:44.772Z,38.34
2022-08-19T11:29:44.685Z,38.84
2022-08-19T11:34:44.648Z,38.38
2022-08-19T11:39:44.629Z,36.82
2022-08-19T11:44:45.513Z,38.65
2022-08-19T11:49:44.434Z,41.07
2022-08-19T11:54:44.415Z,39.08
2022-08-19T11:59:44.319Z,37.38
2022-08-19T12:04:44.420Z,37.63
2022-08-19T12:09:44.182Z,36.82
2022-08-19T12:14:44.544Z,37.23
2022-08-19T12:19:44.038Z,35.61
2022-08-19T12:24:44.107Z,39.69
2022-08-19T12:29:43.964Z,37.81
2022-08-19T12:34:43.855Z,37.96
2022-08-19T12:39:43.872Z,40.00
2022-08-19T12:44:43.797Z,37.79
2022-08-19T12:49:54.387Z,40.01
2022-08-19T12:54:44.630Z,38.63
2022-08-19T12:59:43.578Z,38.65
2022-08-19T13:04:43.508Z,38.55
2022-08-19T13:09:43.545Z,37.47
2022-08-19T13:14:43.387Z,38.59
2022-08-19T13:19:43.315Z,40.27
2022-08-19T13:24:47.245Z,40.47
2022-08-19T13:29:43.187Z,40.09
2022-08-19T13:34:43.138Z,39.74
2022-08-19T13:39:43.138Z,39.72
2022-08-19T13:44:43.094Z,40.41
2022-08-19T13:49:42.995Z,38.56
2022-08-19T13:54:42.894Z,40.66
2022-08-19T13:59:42.791Z,40.86
2022-08-19T14:04:42.749Z,41.03
2022-08-19T14:09:42.675Z,39.86
2022-08-19T14:14:43.103Z,40.17
2022-08-19T14:19:42.506Z,40.86
2022-08-19T14:24:48.017Z,40.58
2022-08-19T14:29:43.411Z,41.88
2022-08-19T14:34:42.333Z,41.96
2022-08-19T14:39:42.311Z,40.39
2022-08-19T14:44:42.202Z,40.48
2022-08-19T14:49:45.757Z,40.19
2022-08-19T14:54:43.104Z,40.70
2022-08-19T14:59:41.996Z,40.82
2022-08-19T15:04:41.949Z,40.94
2022-08-19T15:09:41.894Z,41.73
2022-08-19T15:14:41.806Z,41.61
2022-08-19T15:19:41.780Z,41.83
2022-08-19T15:24:47.952Z,42.44
2022-08-19T15:29:42.696Z,41.75
2022-08-19T15:34:41.578Z,41.99
2022-08-19T15:39:41.560Z,42.99
2022-08-19T15:44:41.437Z,42.13
2022-08-19T15:49:41.422Z,42.32
2022-08-19T15:54:41.323Z,43.70
2022-08-19T15:59:46.899Z,45.46
2022-08-19T16:04:42.191Z,44.47
2022-08-19T16:09:42.305Z,46.00
2022-08-19T16:14:42.460Z,45.82
2022-08-19T16:19:40.989Z,46.81
2022-08-19T16:24:40.902Z,46.04
2022-08-19T16:29:42.661Z,46.45
2022-08-19T16:34:40.796Z,45.68
2022-08-19T16:39:40.748Z,47.49
2022-08-19T16:44:40.708Z,48.48
2022-08-19T16:49:53.123Z,47.81
2022-08-19T16:54:41.627Z,48.68
2022-08-19T16:59:44.121Z,47.89
2022-08-19T17:04:41.497Z,47.89
2022-08-19T17:09:40.345Z,48.60
2022-08-19T17:14:43.949Z,49.10
2022-08-19T17:19:41.210Z,48.03
2022-08-19T17:24:40.549Z,48.63
2022-08-19T17:29:43.904Z,48.03
2022-08-19T17:34:41.240Z,49.15
2022-08-19T17:39:40.021Z,49.96
2022-08-19T17:44:39.900Z,50.16
2022-08-19T17:49:39.841Z,50.68
2022-08-19T17:54:39.893Z,51.28
2022-08-19T17:59:39.664Z,51.89
2022-08-19T18:04:39.625Z,52.00
2022-08-19T18:09:42.318Z,52.42
2022-08-19T18:14:39.481Z,53.33
2022-08-19T18:19:40.823Z,54.06
2022-08-19T18:24:39.364Z,54.85
2022-08-19T18:29:39.273Z,55.97
2022-08-19T18:34:39.290Z,56.59
2022-08-19T18:39:39.214Z,56.99
2022-08-19T18:44:40.260Z,57.62
2022-08-19T18:49:39.022Z,58.61
2022-08-19T18:54:38.985Z,59.64
2022-08-19T18:59:38.893Z,59.94
2022-08-19T19:04:38.843Z,60.46
2022-08-19T19:09:38.811Z,61.49
2022-08-19T19:14:49.181Z,62.38
2022-08-19T19:19:39.632Z,62.68
2022-08-19T19:24:38.762Z,63.41
2022-08-19T19:29:38.911Z,64.21
2022-08-19T19:34:38.452Z,64.64
2022-08-19T19:39:45.958Z,65.14
2022-08-19T19:44:39.330Z,65.34
2022-08-19T19:49:52.518Z,66.13
2022-08-19T19:54:39.245Z,66.13
2022-08-19T19:59:39.180Z,66.33
2022-08-19T20:04:39.044Z,66.83
2022-08-19T20:09:58.398Z,67.33
2022-08-19T20:14:38.964Z,67.57
2022-08-19T20:19:37.957Z,67.73
2022-08-19T20:24:37.796Z,67.93
2022-08-19T20:29:40.364Z,68.33
2022-08-19T20:34:38.680Z,68.86
2022-08-19T20:39:37.632Z,69.36
2022-08-19T20:44:37.552Z,69.89
2022-08-19T20:49:37.544Z,70.19
2022-08-19T20:54:37.377Z,70.72
2022-08-19T20:59:37.330Z,70.53
2022-08-19T21:04:37.251Z,70.72
2022-08-19T21:09:37.273Z,71.03
2022-08-19T21:14:37.140Z,70.62
2022-08-19T21:19:37.070Z,71.12
2022-08-19T21:24:37.117Z,71.33
2022-08-19T21:29:36.936Z,71.52
2022-08-19T21:34:36.863Z,71.52
2022-08-19T21:39:36.855Z,72.36
2022-08-19T21:44:37.639Z,72.76
2022-08-19T21:49:36.684Z,73.06
2022-08-19T21:54:37.911Z,73.89
2022-08-19T21:59:36.558Z,74.55
2022-08-19T22:04:36.490Z,74.66
2022-08-19T22:09:36.410Z,74.85
2022-08-19T22:14:36.360Z,74.85
2022-08-19T22:19:36.255Z,74.96
2022-08-19T22:24:36.448Z,75.39
2022-08-19T22:29:36.155Z,75.59
2022-08-19T22:34:36.153Z,76.09
2022-08-19T22:39:36.051Z,76.29
2022-08-19T22:44:36.104Z,76.79
2022-08-19T22:49:35.860Z,76.89
2022-08-19T22:54:35.873Z,77.19
2022-08-19T22:59:35.778Z,77.09
2022-08-19T23:04:35.710Z,77.73
2022-08-19T23:09:35.671Z,78.03
2022-08-19T23:14:35.697Z,78.23
2022-08-19T23:19:35.476Z,78.53
2022-08-19T23:24:35.440Z,79.03
2022-08-19T23:29:55.253Z,79.17
2022-08-19T23:34:47.625Z,79.77
2022-08-19T23:39:47.616Z,79.97
2022-08-19T23:44:51.291Z,79.77
2022-08-19T23:49:47.470Z,80.17
2022-08-19T23:54:47.370Z,80.67
2022-08-19T23:59:47.326Z,80.77
